Terminal Aerodrome Forecast
Issued by NWS

Home | Current Version | Previous Version | Graphics & Text | Print | Product List | Glossary On
Versions: 1 2 3 4 5 6 7 8 9 10 11 12 13 14 15 16 17 18 19
000
FTUS42 KMHX 221323 AAA
TAFPGV
TAF AMD
KPGV 221323Z 2213/2312 36008KT P6SM BKN025 BKN090
     FM221500 36007KT P6SM SCT030
     FM222300 VRB02KT P6SM SKC
      AMD LTD TO CLD VIS AND WIND=

USA.gov is the U.S. government's official web portal to all federal, state and local government web resources and services.